sensor_id;sensor_type;location;lat;lon;timestamp;temperature;humidity
65036;DHT22;51603;49.300;8.880;2023-02-12T00:00:36;4.50;99.90
65036;DHT22;51603;49.300;8.880;2023-02-12T00:03:01;4.40;99.90
65036;DHT22;51603;49.300;8.880;2023-02-12T00:05:27;4.40;99.90
65036;DHT22;51603;49.300;8.880;2023-02-12T00:07:53;4.40;99.90
65036;DHT22;51603;49.300;8.880;2023-02-12T00:10:18;4.30;99.90
65036;DHT22;51603;49.300;8.880;2023-02-12T00:12:44;4.30;99.90
65036;DHT22;51603;49.300;8.880;2023-02-12T00:15:09;4.30;99.90
65036;DHT22;51603;49.300;8.880;2023-02-12T00:17:35;4.30;99.90
65036;DHT22;51603;49.300;8.880;2023-02-12T00:20:01;4.30;99.90
65036;DHT22;51603;49.300;8.880;2023-02-12T00:22:26;4.40;99.90
65036;DHT22;51603;49.300;8.880;2023-02-12T00:24:54;4.40;99.90
65036;DHT22;51603;49.300;8.880;2023-02-12T00:27:19;4.40;99.90
65036;DHT22;51603;49.300;8.880;2023-02-12T00:29:45;4.40;99.90
65036;DHT22;51603;49.300;8.880;2023-02-12T00:32:10;4.40;99.90
65036;DHT22;51603;49.300;8.880;2023-02-12T00:34:36;4.40;99.90
65036;DHT22;51603;49.300;8.880;2023-02-12T00:37:01;4.40;99.90
65036;DHT22;51603;49.300;8.880;2023-02-12T00:39:27;4.40;99.90
65036;DHT22;51603;49.300;8.880;2023-02-12T00:41:53;4.40;99.90
65036;DHT22;51603;49.300;8.880;2023-02-12T00:44:18;4.30;99.90
65036;DHT22;51603;49.300;8.880;2023-02-12T00:46:44;4.30;99.90
65036;DHT22;51603;49.300;8.880;2023-02-12T00:49:09;4.40;99.90
65036;DHT22;51603;49.300;8.880;2023-02-12T00:51:35;4.40;99.90
65036;DHT22;51603;49.300;8.880;2023-02-12T00:54:00;4.40;99.90
65036;DHT22;51603;49.300;8.880;2023-02-12T00:56:26;4.50;99.90
65036;DHT22;51603;49.300;8.880;2023-02-12T00:58:51;4.50;99.90
65036;DHT22;51603;49.300;8.880;2023-02-12T01:01:17;4.40;99.90
65036;DHT22;51603;49.300;8.880;2023-02-12T01:03:43;4.40;99.90
65036;DHT22;51603;49.300;8.880;2023-02-12T01:06:08;4.40;99.90
65036;DHT22;51603;49.300;8.880;2023-02-12T01:08:34;4.40;99.90
65036;DHT22;51603;49.300;8.880;2023-02-12T01:11:02;4.40;99.90
65036;DHT22;51603;49.300;8.880;2023-02-12T01:13:29;4.40;99.90
65036;DHT22;51603;49.300;8.880;2023-02-12T01:18:33;4.30;99.90
65036;DHT22;51603;49.300;8.880;2023-02-12T01:20:59;4.30;99.90
65036;DHT22;51603;49.300;8.880;2023-02-12T01:23:26;4.30;99.90
65036;DHT22;51603;49.300;8.880;2023-02-12T01:25:52;4.30;99.90
65036;DHT22;51603;49.300;8.880;2023-02-12T01:28:17;4.30;99.90
65036;DHT22;51603;49.300;8.880;2023-02-12T01:30:43;4.20;99.90
65036;DHT22;51603;49.300;8.880;2023-02-12T01:33:09;4.30;99.90
65036;DHT22;51603;49.300;8.880;2023-02-12T01:35:36;4.30;99.90
65036;DHT22;51603;49.300;8.880;2023-02-12T01:38:02;4.40;99.90
65036;DHT22;51603;49.300;8.880;2023-02-12T01:40:27;4.30;99.90
65036;DHT22;51603;49.300;8.880;2023-02-12T01:42:53;4.30;99.90
65036;DHT22;51603;49.300;8.880;2023-02-12T01:47:47;4.30;99.90
65036;DHT22;51603;49.300;8.880;2023-02-12T01:50:17;4.20;99.90
65036;DHT22;51603;49.300;8.880;2023-02-12T01:52:48;4.20;99.90
65036;DHT22;51603;49.300;8.880;2023-02-12T01:55:16;4.20;99.90
65036;DHT22;51603;49.300;8.880;2023-02-12T01:57:44;4.20;99.90
65036;DHT22;51603;49.300;8.880;2023-02-12T02:00:15;4.20;99.90
65036;DHT22;51603;49.300;8.880;2023-02-12T02:02:44;4.20;99.90
65036;DHT22;51603;49.300;8.880;2023-02-12T02:05:12;4.20;99.90
65036;DHT22;51603;49.300;8.880;2023-02-12T02:07:40;4.30;99.90
65036;DHT22;51603;49.300;8.880;2023-02-12T02:10:08;4.30;99.90
65036;DHT22;51603;49.300;8.880;2023-02-12T02:12:33;4.30;99.90
65036;DHT22;51603;49.300;8.880;2023-02-12T02:15:18;4.30;99.90
65036;DHT22;51603;49.300;8.880;2023-02-12T02:18:06;4.30;99.90
65036;DHT22;51603;49.300;8.880;2023-02-12T02:26:30;4.30;99.90
65036;DHT22;51603;49.300;8.880;2023-02-12T02:32:07;4.20;99.90
65036;DHT22;51603;49.300;8.880;2023-02-12T02:34:52;4.20;99.90
65036;DHT22;51603;49.300;8.880;2023-02-12T02:37:48;4.20;99.90
65036;DHT22;51603;49.300;8.880;2023-02-12T02:40:22;4.20;99.90
65036;DHT22;51603;49.300;8.880;2023-02-12T02:43:12;4.20;99.90
65036;DHT22;51603;49.300;8.880;2023-02-12T02:45:42;4.10;99.90
65036;DHT22;51603;49.300;8.880;2023-02-12T02:50:42;4.00;99.90
65036;DHT22;51603;49.300;8.880;2023-02-12T02:53:19;4.00;99.90
65036;DHT22;51603;49.300;8.880;2023-02-12T02:55:51;4.00;99.90
65036;DHT22;51603;49.300;8.880;2023-02-12T02:58:35;4.00;99.90
65036;DHT22;51603;49.300;8.880;2023-02-12T03:01:10;4.00;99.90
65036;DHT22;51603;49.300;8.880;2023-02-12T03:03:49;4.00;99.90
65036;DHT22;51603;49.300;8.880;2023-02-12T03:06:40;4.00;99.90
65036;DHT22;51603;49.300;8.880;2023-02-12T03:09:21;4.00;99.90
65036;DHT22;51603;49.300;8.880;2023-02-12T03:11:48;4.00;99.90
65036;DHT22;51603;49.300;8.880;2023-02-12T03:14:24;4.00;99.90
65036;DHT22;51603;49.300;8.880;2023-02-12T03:17:15;4.00;99.90
65036;DHT22;51603;49.300;8.880;2023-02-12T03:19:48;4.00;99.90
65036;DHT22;51603;49.300;8.880;2023-02-12T03:22:27;4.00;99.90
65036;DHT22;51603;49.300;8.880;2023-02-12T03:24:57;4.00;99.90
65036;DHT22;51603;49.300;8.880;2023-02-12T03:27:33;4.00;99.90
65036;DHT22;51603;49.300;8.880;2023-02-12T03:30:01;4.00;99.90
65036;DHT22;51603;49.300;8.880;2023-02-12T03:35:34;3.90;99.90
65036;DHT22;51603;49.300;8.880;2023-02-12T03:38:30;3.90;99.90
65036;DHT22;51603;49.300;8.880;2023-02-12T03:41:04;3.90;99.90
65036;DHT22;51603;49.300;8.880;2023-02-12T03:43:53;3.90;99.90
65036;DHT22;51603;49.300;8.880;2023-02-12T03:46:38;3.90;99.90
65036;DHT22;51603;49.300;8.880;2023-02-12T03:51:35;3.90;99.90
65036;DHT22;51603;49.300;8.880;2023-02-12T03:54:03;4.00;99.90
65036;DHT22;51603;49.300;8.880;2023-02-12T03:56:36;4.00;99.90
65036;DHT22;51603;49.300;8.880;2023-02-12T03:59:04;4.00;99.90
65036;DHT22;51603;49.300;8.880;2023-02-12T04:01:31;4.00;99.90
65036;DHT22;51603;49.300;8.880;2023-02-12T04:03:57;3.90;99.90
65036;DHT22;51603;49.300;8.880;2023-02-12T04:06:26;3.90;99.90
65036;DHT22;51603;49.300;8.880;2023-02-12T04:08:53;3.90;99.90
65036;DHT22;51603;49.300;8.880;2023-02-12T04:17:04;3.90;99.90
65036;DHT22;51603;49.300;8.880;2023-02-12T04:20:02;3.80;99.90
65036;DHT22;51603;49.300;8.880;2023-02-12T04:28:14;3.80;99.90
65036;DHT22;51603;49.300;8.880;2023-02-12T04:31:05;3.80;99.90
65036;DHT22;51603;49.300;8.880;2023-02-12T04:33:37;3.80;99.90
65036;DHT22;51603;49.300;8.880;2023-02-12T04:36:16;3.80;99.90
65036;DHT22;51603;49.300;8.880;2023-02-12T04:38:50;3.80;99.90
65036;DHT22;51603;49.300;8.880;2023-02-12T04:41:16;3.80;99.90
65036;DHT22;51603;49.300;8.880;2023-02-12T04:43:41;3.80;99.90
65036;DHT22;51603;49.300;8.880;2023-02-12T04:46:07;3.80;99.90
65036;DHT22;51603;49.300;8.880;2023-02-12T04:48:36;3.80;99.90
65036;DHT22;51603;49.300;8.880;2023-02-12T04:51:04;3.80;99.90
65036;DHT22;51603;49.300;8.880;2023-02-12T04:53:29;3.80;99.90
65036;DHT22;51603;49.300;8.880;2023-02-12T04:55:55;3.80;99.90
65036;DHT22;51603;49.300;8.880;2023-02-12T04:58:20;3.80;99.90
65036;DHT22;51603;49.300;8.880;2023-02-12T05:00:46;3.80;99.90
65036;DHT22;51603;49.300;8.880;2023-02-12T05:03:11;3.80;99.90
65036;DHT22;51603;49.300;8.880;2023-02-12T05:05:37;3.80;99.90
65036;DHT22;51603;49.300;8.880;2023-02-12T05:08:03;3.80;99.90
65036;DHT22;51603;49.300;8.880;2023-02-12T05:10:28;3.80;99.90
65036;DHT22;51603;49.300;8.880;2023-02-12T05:12:54;3.80;99.90
65036;DHT22;51603;49.300;8.880;2023-02-12T05:15:20;3.80;99.90
65036;DHT22;51603;49.300;8.880;2023-02-12T05:17:46;3.70;99.90
65036;DHT22;51603;49.300;8.880;2023-02-12T05:20:12;3.70;99.90
65036;DHT22;51603;49.300;8.880;2023-02-12T05:22:38;3.70;99.90
65036;DHT22;51603;49.300;8.880;2023-02-12T05:25:05;3.70;99.90
65036;DHT22;51603;49.300;8.880;2023-02-12T05:27:30;3.70;99.90
65036;DHT22;51603;49.300;8.880;2023-02-12T05:29:56;3.70;99.90
65036;DHT22;51603;49.300;8.880;2023-02-12T05:32:22;3.70;99.90
65036;DHT22;51603;49.300;8.880;2023-02-12T05:34:48;3.70;99.90
65036;DHT22;51603;49.300;8.880;2023-02-12T05:37:14;3.70;99.90
65036;DHT22;51603;49.300;8.880;2023-02-12T05:39:39;3.70;99.90
65036;DHT22;51603;49.300;8.880;2023-02-12T05:42:05;3.70;99.90
65036;DHT22;51603;49.300;8.880;2023-02-12T05:44:31;3.60;99.90
65036;DHT22;51603;49.300;8.880;2023-02-12T05:46:56;3.60;99.90
65036;DHT22;51603;49.300;8.880;2023-02-12T05:49:22;3.60;99.90
65036;DHT22;51603;49.300;8.880;2023-02-12T05:51:48;3.60;99.90
65036;DHT22;51603;49.300;8.880;2023-02-12T05:54:13;3.60;99.90
65036;DHT22;51603;49.300;8.880;2023-02-12T05:56:46;3.60;99.90
65036;DHT22;51603;49.300;8.880;2023-02-12T05:59:20;3.60;99.90
65036;DHT22;51603;49.300;8.880;2023-02-12T06:01:47;3.60;99.90
65036;DHT22;51603;49.300;8.880;2023-02-12T06:04:19;3.60;99.90
65036;DHT22;51603;49.300;8.880;2023-02-12T06:06:45;3.60;99.90
65036;DHT22;51603;49.300;8.880;2023-02-12T06:09:12;3.60;99.90
65036;DHT22;51603;49.300;8.880;2023-02-12T06:11:38;3.60;99.90
65036;DHT22;51603;49.300;8.880;2023-02-12T06:14:05;3.60;99.90
65036;DHT22;51603;49.300;8.880;2023-02-12T06:16:32;3.60;99.90
65036;DHT22;51603;49.300;8.880;2023-02-12T06:19:01;3.60;99.90
65036;DHT22;51603;49.300;8.880;2023-02-12T06:21:27;3.70;99.90
65036;DHT22;51603;49.300;8.880;2023-02-12T06:23:53;3.70;99.90
65036;DHT22;51603;49.300;8.880;2023-02-12T06:26:20;3.70;99.90
65036;DHT22;51603;49.300;8.880;2023-02-12T06:28:46;3.70;99.90
65036;DHT22;51603;49.300;8.880;2023-02-12T06:31:31;3.70;99.90
65036;DHT22;51603;49.300;8.880;2023-02-12T06:34:00;3.70;99.90
65036;DHT22;51603;49.300;8.880;2023-02-12T06:36:26;3.70;99.90
65036;DHT22;51603;49.300;8.880;2023-02-12T06:38:52;3.70;99.90
65036;DHT22;51603;49.300;8.880;2023-02-12T06:41:18;3.80;99.90
65036;DHT22;51603;49.300;8.880;2023-02-12T06:43:43;3.80;99.90
65036;DHT22;51603;49.300;8.880;2023-02-12T06:46:09;3.80;99.90
65036;DHT22;51603;49.300;8.880;2023-02-12T06:48:35;3.80;99.90
65036;DHT22;51603;49.300;8.880;2023-02-12T06:51:09;3.80;99.90
65036;DHT22;51603;49.300;8.880;2023-02-12T06:53:35;3.80;99.90
65036;DHT22;51603;49.300;8.880;2023-02-12T06:56:02;3.80;99.90
65036;DHT22;51603;49.300;8.880;2023-02-12T06:58:28;3.80;99.90
65036;DHT22;51603;49.300;8.880;2023-02-12T07:00:54;3.80;99.90
65036;DHT22;51603;49.300;8.880;2023-02-12T07:03:20;3.80;99.90
65036;DHT22;51603;49.300;8.880;2023-02-12T07:05:45;3.80;99.90
65036;DHT22;51603;49.300;8.880;2023-02-12T07:08:13;3.80;99.90
65036;DHT22;51603;49.300;8.880;2023-02-12T07:10:38;3.80;99.90
65036;DHT22;51603;49.300;8.880;2023-02-12T07:13:04;3.90;99.90
65036;DHT22;51603;49.300;8.880;2023-02-12T07:15:29;3.90;99.90
65036;DHT22;51603;49.300;8.880;2023-02-12T07:17:55;3.90;99.90
65036;DHT22;51603;49.300;8.880;2023-02-12T07:20:20;3.90;99.90
65036;DHT22;51603;49.300;8.880;2023-02-12T07:22:46;3.90;99.90
65036;DHT22;51603;49.300;8.880;2023-02-12T07:25:12;3.90;99.90
65036;DHT22;51603;49.300;8.880;2023-02-12T07:27:38;3.90;99.90
65036;DHT22;51603;49.300;8.880;2023-02-12T07:30:06;4.00;99.90
65036;DHT22;51603;49.300;8.880;2023-02-12T07:32:33;4.00;99.90
65036;DHT22;51603;49.300;8.880;2023-02-12T07:34:58;4.00;99.90
65036;DHT22;51603;49.300;8.880;2023-02-12T07:37:24;4.00;99.90
65036;DHT22;51603;49.300;8.880;2023-02-12T07:39:50;4.00;99.90
65036;DHT22;51603;49.300;8.880;2023-02-12T07:42:16;4.00;99.90
65036;DHT22;51603;49.300;8.880;2023-02-12T07:44:43;4.10;99.90
65036;DHT22;51603;49.300;8.880;2023-02-12T07:47:08;4.10;99.90
65036;DHT22;51603;49.300;8.880;2023-02-12T07:49:34;4.10;99.90
65036;DHT22;51603;49.300;8.880;2023-02-12T07:52:00;4.20;99.90
65036;DHT22;51603;49.300;8.880;2023-02-12T07:54:25;4.20;99.90
65036;DHT22;51603;49.300;8.880;2023-02-12T07:56:51;4.20;99.90
65036;DHT22;51603;49.300;8.880;2023-02-12T07:59:18;4.30;99.90
65036;DHT22;51603;49.300;8.880;2023-02-12T08:01:48;4.30;99.90
65036;DHT22;51603;49.300;8.880;2023-02-12T08:04:16;4.30;99.90
65036;DHT22;51603;49.300;8.880;2023-02-12T08:06:44;4.40;99.90
65036;DHT22;51603;49.300;8.880;2023-02-12T08:09:12;4.40;99.90
65036;DHT22;51603;49.300;8.880;2023-02-12T08:11:40;4.40;99.90
65036;DHT22;51603;49.300;8.880;2023-02-12T08:14:06;4.50;99.90
65036;DHT22;51603;49.300;8.880;2023-02-12T08:16:36;4.50;99.90
65036;DHT22;51603;49.300;8.880;2023-02-12T08:19:01;4.50;99.90
65036;DHT22;51603;49.300;8.880;2023-02-12T08:21:28;4.50;99.90
65036;DHT22;51603;49.300;8.880;2023-02-12T08:23:54;4.60;99.90
65036;DHT22;51603;49.300;8.880;2023-02-12T08:26:26;4.60;99.90
65036;DHT22;51603;49.300;8.880;2023-02-12T08:29:03;4.60;99.90
65036;DHT22;51603;49.300;8.880;2023-02-12T08:31:31;4.70;99.90
65036;DHT22;51603;49.300;8.880;2023-02-12T08:33:58;4.70;99.90
65036;DHT22;51603;49.300;8.880;2023-02-12T08:36:29;4.70;99.90
65036;DHT22;51603;49.300;8.880;2023-02-12T08:38:57;4.70;99.90
65036;DHT22;51603;49.300;8.880;2023-02-12T08:41:26;4.70;99.90
65036;DHT22;51603;49.300;8.880;2023-02-12T08:43:54;4.80;99.90
65036;DHT22;51603;49.300;8.880;2023-02-12T08:46:25;4.80;99.90
65036;DHT22;51603;49.300;8.880;2023-02-12T08:48:59;4.80;99.90
65036;DHT22;51603;49.300;8.880;2023-02-12T08:51:28;4.80;99.90
65036;DHT22;51603;49.300;8.880;2023-02-12T08:53:57;4.90;99.90
65036;DHT22;51603;49.300;8.880;2023-02-12T08:56:24;4.90;99.90
65036;DHT22;51603;49.300;8.880;2023-02-12T08:58:50;5.00;99.90
65036;DHT22;51603;49.300;8.880;2023-02-12T09:01:21;5.00;99.90
65036;DHT22;51603;49.300;8.880;2023-02-12T09:03:47;5.10;99.90
65036;DHT22;51603;49.300;8.880;2023-02-12T09:06:15;5.10;99.90
65036;DHT22;51603;49.300;8.880;2023-02-12T09:08:42;5.10;99.90
65036;DHT22;51603;49.300;8.880;2023-02-12T09:11:19;5.20;99.90
65036;DHT22;51603;49.300;8.880;2023-02-12T09:13:48;5.20;99.90
65036;DHT22;51603;49.300;8.880;2023-02-12T09:16:14;5.30;99.90
65036;DHT22;51603;49.300;8.880;2023-02-12T09:18:39;5.30;99.90
65036;DHT22;51603;49.300;8.880;2023-02-12T09:21:08;5.30;99.90
65036;DHT22;51603;49.300;8.880;2023-02-12T09:23:34;5.30;99.90
65036;DHT22;51603;49.300;8.880;2023-02-12T09:26:02;5.40;99.90
65036;DHT22;51603;49.300;8.880;2023-02-12T09:28:28;5.40;99.90
65036;DHT22;51603;49.300;8.880;2023-02-12T09:30:53;5.50;99.90
65036;DHT22;51603;49.300;8.880;2023-02-12T09:33:19;5.50;99.90
65036;DHT22;51603;49.300;8.880;2023-02-12T09:35:44;5.50;99.90
65036;DHT22;51603;49.300;8.880;2023-02-12T09:38:10;5.60;99.90
65036;DHT22;51603;49.300;8.880;2023-02-12T09:45:42;5.70;99.90
65036;DHT22;51603;49.300;8.880;2023-02-12T09:48:16;5.80;99.90
65036;DHT22;51603;49.300;8.880;2023-02-12T09:50:56;5.80;99.90
65036;DHT22;51603;49.300;8.880;2023-02-12T09:53:26;5.90;99.90
65036;DHT22;51603;49.300;8.880;2023-02-12T09:55:53;5.90;99.90
65036;DHT22;51603;49.300;8.880;2023-02-12T10:00:49;6.10;99.90
65036;DHT22;51603;49.300;8.880;2023-02-12T10:03:16;6.10;99.90
65036;DHT22;51603;49.300;8.880;2023-02-12T10:05:52;6.20;99.90
65036;DHT22;51603;49.300;8.880;2023-02-12T10:25:53;6.50;99.90
65036;DHT22;51603;49.300;8.880;2023-02-12T10:28:36;6.50;99.90
65036;DHT22;51603;49.300;8.880;2023-02-12T10:31:07;6.60;99.90
65036;DHT22;51603;49.300;8.880;2023-02-12T10:33:48;6.70;99.90
65036;DHT22;51603;49.300;8.880;2023-02-12T10:41:37;6.80;99.90
65036;DHT22;51603;49.300;8.880;2023-02-12T10:44:05;6.90;99.90
65036;DHT22;51603;49.300;8.880;2023-02-12T10:46:31;7.00;99.90
65036;DHT22;51603;49.300;8.880;2023-02-12T10:48:57;7.00;99.90
65036;DHT22;51603;49.300;8.880;2023-02-12T10:51:37;7.10;99.90
65036;DHT22;51603;49.300;8.880;2023-02-12T10:57:08;7.20;99.90
65036;DHT22;51603;49.300;8.880;2023-02-12T10:59:35;7.30;99.90
65036;DHT22;51603;49.300;8.880;2023-02-12T11:02:01;7.30;99.90
65036;DHT22;51603;49.300;8.880;2023-02-12T11:04:29;7.40;99.90
65036;DHT22;51603;49.300;8.880;2023-02-12T11:07:05;7.40;99.90
65036;DHT22;51603;49.300;8.880;2023-02-12T11:09:37;7.40;99.90
65036;DHT22;51603;49.300;8.880;2023-02-12T11:14:56;7.40;99.90
65036;DHT22;51603;49.300;8.880;2023-02-12T11:17:31;7.50;99.90
65036;DHT22;51603;49.300;8.880;2023-02-12T11:22:58;7.60;99.90
65036;DHT22;51603;49.300;8.880;2023-02-12T11:25:27;7.70;99.90
65036;DHT22;51603;49.300;8.880;2023-02-12T11:28:17;7.80;99.90
65036;DHT22;51603;49.300;8.880;2023-02-12T11:31:19;7.90;99.90
65036;DHT22;51603;49.300;8.880;2023-02-12T11:33:45;8.00;99.90
65036;DHT22;51603;49.300;8.880;2023-02-12T11:36:21;8.10;99.90
65036;DHT22;51603;49.300;8.880;2023-02-12T11:38:52;8.10;99.90
65036;DHT22;51603;49.300;8.880;2023-02-12T11:41:26;8.20;99.90
65036;DHT22;51603;49.300;8.880;2023-02-12T11:43:59;8.30;99.90
65036;DHT22;51603;49.300;8.880;2023-02-12T11:46:26;8.40;99.90
65036;DHT22;51603;49.300;8.880;2023-02-12T11:48:53;8.50;99.90
65036;DHT22;51603;49.300;8.880;2023-02-12T11:51:25;8.60;99.90
65036;DHT22;51603;49.300;8.880;2023-02-12T11:53:52;8.70;99.90
65036;DHT22;51603;49.300;8.880;2023-02-12T11:56:20;8.70;99.90
65036;DHT22;51603;49.300;8.880;2023-02-12T11:58:47;8.80;99.90
65036;DHT22;51603;49.300;8.880;2023-02-12T12:01:18;8.80;99.90
65036;DHT22;51603;49.300;8.880;2023-02-12T12:03:57;8.90;99.90
65036;DHT22;51603;49.300;8.880;2023-02-12T12:06:39;9.00;99.90
65036;DHT22;51603;49.300;8.880;2023-02-12T12:14:34;9.00;99.90
65036;DHT22;51603;49.300;8.880;2023-02-12T12:17:26;9.10;99.90
65036;DHT22;51603;49.300;8.880;2023-02-12T12:20:21;9.20;99.90
65036;DHT22;51603;49.300;8.880;2023-02-12T12:22:53;9.20;99.90
65036;DHT22;51603;49.300;8.880;2023-02-12T12:28:16;9.20;99.90
65036;DHT22;51603;49.300;8.880;2023-02-12T12:33:41;9.30;99.90
65036;DHT22;51603;49.300;8.880;2023-02-12T12:44:19;9.60;99.90
65036;DHT22;51603;49.300;8.880;2023-02-12T12:49:47;9.80;99.90
65036;DHT22;51603;49.300;8.880;2023-02-12T12:58:17;9.80;99.90
65036;DHT22;51603;49.300;8.880;2023-02-12T13:14:55;10.00;99.90
65036;DHT22;51603;49.300;8.880;2023-02-12T13:17:34;10.20;99.90
65036;DHT22;51603;49.300;8.880;2023-02-12T13:23:49;10.60;99.90
65036;DHT22;51603;49.300;8.880;2023-02-12T13:34:33;10.60;99.90
65036;DHT22;51603;49.300;8.880;2023-02-12T13:37:00;10.60;99.90
65036;DHT22;51603;49.300;8.880;2023-02-12T13:39:36;10.50;99.90
65036;DHT22;51603;49.300;8.880;2023-02-12T13:47:44;10.40;99.90
65036;DHT22;51603;49.300;8.880;2023-02-12T14:00:57;10.70;99.90
65036;DHT22;51603;49.300;8.880;2023-02-12T14:03:25;10.80;99.90
65036;DHT22;51603;49.300;8.880;2023-02-12T14:06:17;10.90;99.90
65036;DHT22;51603;49.300;8.880;2023-02-12T14:08:49;11.00;99.90
65036;DHT22;51603;49.300;8.880;2023-02-12T14:11:18;11.00;99.90
65036;DHT22;51603;49.300;8.880;2023-02-12T14:13:59;11.20;99.90
65036;DHT22;51603;49.300;8.880;2023-02-12T14:22:08;11.20;99.90
65036;DHT22;51603;49.300;8.880;2023-02-12T14:27:17;11.40;99.90
65036;DHT22;51603;49.300;8.880;2023-02-12T14:30:18;11.50;99.90
65036;DHT22;51603;49.300;8.880;2023-02-12T14:43:31;11.70;99.90
65036;DHT22;51603;49.300;8.880;2023-02-12T14:49:01;11.70;99.90
65036;DHT22;51603;49.300;8.880;2023-02-12T14:51:41;11.90;99.90
65036;DHT22;51603;49.300;8.880;2023-02-12T14:54:28;12.00;99.90
65036;DHT22;51603;49.300;8.880;2023-02-12T14:56:55;11.80;99.90
65036;DHT22;51603;49.300;8.880;2023-02-12T14:59:24;11.80;99.90
65036;DHT22;51603;49.300;8.880;2023-02-12T15:01:51;11.80;99.90
65036;DHT22;51603;49.300;8.880;2023-02-12T15:04:30;11.80;99.90
65036;DHT22;51603;49.300;8.880;2023-02-12T15:07:07;11.70;99.90
65036;DHT22;51603;49.300;8.880;2023-02-12T15:09:35;11.70;99.90
65036;DHT22;51603;49.300;8.880;2023-02-12T15:12:34;11.80;99.90
65036;DHT22;51603;49.300;8.880;2023-02-12T15:15:31;11.90;99.90
65036;DHT22;51603;49.300;8.880;2023-02-12T15:18:04;12.00;99.90
65036;DHT22;51603;49.300;8.880;2023-02-12T15:23:43;11.90;99.90
65036;DHT22;51603;49.300;8.880;2023-02-12T15:26:17;11.90;99.90
65036;DHT22;51603;49.300;8.880;2023-02-12T15:28:46;11.80;99.90
65036;DHT22;51603;49.300;8.880;2023-02-12T15:31:18;11.60;99.90
65036;DHT22;51603;49.300;8.880;2023-02-12T15:33:47;11.60;99.90
65036;DHT22;51603;49.300;8.880;2023-02-12T15:36:17;11.50;99.90
65036;DHT22;51603;49.300;8.880;2023-02-12T15:38:47;11.50;99.90
65036;DHT22;51603;49.300;8.880;2023-02-12T15:44:21;11.40;99.90
65036;DHT22;51603;49.300;8.880;2023-02-12T15:49:35;11.30;99.90
65036;DHT22;51603;49.300;8.880;2023-02-12T15:52:07;11.20;99.90
65036;DHT22;51603;49.300;8.880;2023-02-12T15:54:34;11.10;99.90
65036;DHT22;51603;49.300;8.880;2023-02-12T15:57:00;10.90;99.90
65036;DHT22;51603;49.300;8.880;2023-02-12T15:59:33;10.70;99.90
65036;DHT22;51603;49.300;8.880;2023-02-12T16:02:00;10.50;99.90
65036;DHT22;51603;49.300;8.880;2023-02-12T16:04:30;10.40;99.90
65036;DHT22;51603;49.300;8.880;2023-02-12T16:06:57;10.30;99.90
65036;DHT22;51603;49.300;8.880;2023-02-12T16:09:31;10.10;99.90
65036;DHT22;51603;49.300;8.880;2023-02-12T16:12:01;10.00;99.90
65036;DHT22;51603;49.300;8.880;2023-02-12T16:14:40;9.90;99.90
65036;DHT22;51603;49.300;8.880;2023-02-12T16:17:32;9.80;99.90
65036;DHT22;51603;49.300;8.880;2023-02-12T16:20:00;9.60;99.90
65036;DHT22;51603;49.300;8.880;2023-02-12T16:22:38;9.40;99.90
65036;DHT22;51603;49.300;8.880;2023-02-12T16:25:22;9.30;99.90
65036;DHT22;51603;49.300;8.880;2023-02-12T16:28:06;9.10;99.90
65036;DHT22;51603;49.300;8.880;2023-02-12T16:30:34;9.00;99.90
65036;DHT22;51603;49.300;8.880;2023-02-12T16:33:04;8.90;99.90
65036;DHT22;51603;49.300;8.880;2023-02-12T16:36:03;8.80;99.90
65036;DHT22;51603;49.300;8.880;2023-02-12T16:38:44;8.60;99.90
65036;DHT22;51603;49.300;8.880;2023-02-12T16:41:21;8.50;99.90
65036;DHT22;51603;49.300;8.880;2023-02-12T16:46:19;8.20;99.90
65036;DHT22;51603;49.300;8.880;2023-02-12T16:48:50;8.10;99.90
65036;DHT22;51603;49.300;8.880;2023-02-12T16:51:28;8.00;99.90
65036;DHT22;51603;49.300;8.880;2023-02-12T16:53:56;7.90;99.90
65036;DHT22;51603;49.300;8.880;2023-02-12T16:56:24;7.80;99.90
65036;DHT22;51603;49.300;8.880;2023-02-12T16:58:52;7.70;99.90
65036;DHT22;51603;49.300;8.880;2023-02-12T17:01:24;7.70;99.90
65036;DHT22;51603;49.300;8.880;2023-02-12T17:03:50;7.60;99.90
65036;DHT22;51603;49.300;8.880;2023-02-12T17:06:25;7.50;99.90
65036;DHT22;51603;49.300;8.880;2023-02-12T17:08:51;7.50;99.90
65036;DHT22;51603;49.300;8.880;2023-02-12T17:11:18;7.40;99.90
65036;DHT22;51603;49.300;8.880;2023-02-12T17:13:48;7.40;99.90
65036;DHT22;51603;49.300;8.880;2023-02-12T17:16:14;7.40;99.90
65036;DHT22;51603;49.300;8.880;2023-02-12T17:18:40;7.30;99.90
65036;DHT22;51603;49.300;8.880;2023-02-12T17:21:13;7.30;99.90
65036;DHT22;51603;49.300;8.880;2023-02-12T17:23:42;7.30;99.90
65036;DHT22;51603;49.300;8.880;2023-02-12T17:26:08;7.20;99.90
65036;DHT22;51603;49.300;8.880;2023-02-12T17:28:34;7.20;99.90
65036;DHT22;51603;49.300;8.880;2023-02-12T17:31:00;7.10;99.90
65036;DHT22;51603;49.300;8.880;2023-02-12T17:33:28;7.10;99.90
65036;DHT22;51603;49.300;8.880;2023-02-12T17:35:54;7.00;99.90
65036;DHT22;51603;49.300;8.880;2023-02-12T17:38:19;7.00;99.90
65036;DHT22;51603;49.300;8.880;2023-02-12T17:40:45;6.90;99.90
65036;DHT22;51603;49.300;8.880;2023-02-12T17:43:10;6.80;99.90
65036;DHT22;51603;49.300;8.880;2023-02-12T17:45:40;6.60;99.90
65036;DHT22;51603;49.300;8.880;2023-02-12T17:48:10;6.60;99.90
65036;DHT22;51603;49.300;8.880;2023-02-12T17:50:37;6.50;99.90
65036;DHT22;51603;49.300;8.880;2023-02-12T17:53:04;6.40;99.90
65036;DHT22;51603;49.300;8.880;2023-02-12T17:55:30;6.40;99.90
65036;DHT22;51603;49.300;8.880;2023-02-12T17:57:55;6.40;99.90
65036;DHT22;51603;49.300;8.880;2023-02-12T18:00:22;6.40;99.90
65036;DHT22;51603;49.300;8.880;2023-02-12T18:02:48;6.40;99.90
65036;DHT22;51603;49.300;8.880;2023-02-12T18:05:14;6.40;99.90
65036;DHT22;51603;49.300;8.880;2023-02-12T18:07:40;6.40;99.90
65036;DHT22;51603;49.300;8.880;2023-02-12T18:10:07;6.40;99.90
65036;DHT22;51603;49.300;8.880;2023-02-12T18:12:33;6.40;99.90
65036;DHT22;51603;49.300;8.880;2023-02-12T18:15:01;6.40;99.90
65036;DHT22;51603;49.300;8.880;2023-02-12T18:17:27;6.30;99.90
65036;DHT22;51603;49.300;8.880;2023-02-12T18:19:53;6.30;99.90
65036;DHT22;51603;49.300;8.880;2023-02-12T18:22:19;6.30;99.90
65036;DHT22;51603;49.300;8.880;2023-02-12T18:24:46;6.30;99.90
65036;DHT22;51603;49.300;8.880;2023-02-12T18:27:13;6.20;99.90
65036;DHT22;51603;49.300;8.880;2023-02-12T18:29:39;6.20;99.90
65036;DHT22;51603;49.300;8.880;2023-02-12T18:32:05;6.20;99.90
65036;DHT22;51603;49.300;8.880;2023-02-12T18:34:30;6.10;99.90
65036;DHT22;51603;49.300;8.880;2023-02-12T18:36:56;6.10;99.90
65036;DHT22;51603;49.300;8.880;2023-02-12T18:39:22;6.10;99.90
65036;DHT22;51603;49.300;8.880;2023-02-12T18:41:48;6.00;99.90
65036;DHT22;51603;49.300;8.880;2023-02-12T18:44:14;6.00;99.90
65036;DHT22;51603;49.300;8.880;2023-02-12T18:46:39;6.00;99.90
65036;DHT22;51603;49.300;8.880;2023-02-12T18:49:05;5.90;99.90
65036;DHT22;51603;49.300;8.880;2023-02-12T18:51:31;5.90;99.90
65036;DHT22;51603;49.300;8.880;2023-02-12T18:54:03;5.80;99.90
65036;DHT22;51603;49.300;8.880;2023-02-12T18:56:31;5.80;99.90
65036;DHT22;51603;49.300;8.880;2023-02-12T18:58:59;5.70;99.90